createdAt,value
2019-03-24T00:00:44.941Z,97.90
2019-03-24T00:03:15.370Z,97.90
2019-03-24T00:05:45.862Z,97.90
2019-03-24T00:08:16.393Z,98.00
2019-03-24T00:10:46.793Z,98.10
2019-03-24T00:13:17.146Z,98.10
2019-03-24T00:15:47.504Z,98.20
2019-03-24T00:18:17.918Z,98.40
2019-03-24T00:20:48.240Z,98.40
2019-03-24T00:23:18.668Z,98.50
2019-03-24T00:25:49.146Z,98.50
2019-03-24T00:28:19.597Z,98.40
2019-03-24T00:30:50.627Z,98.40
2019-03-24T00:33:20.908Z,98.70
2019-03-24T00:35:51.400Z,98.40
2019-03-24T00:38:21.849Z,98.40
2019-03-24T00:40:52.379Z,98.40
2019-03-24T00:43:22.767Z,98.60
2019-03-24T00:45:53.128Z,98.70
2019-03-24T00:48:23.529Z,98.70
2019-03-24T00:50:53.783Z,98.80
2019-03-24T00:53:24.227Z,98.80
2019-03-24T00:55:54.719Z,98.90
2019-03-24T00:58:25.184Z,98.90
2019-03-24T01:00:55.698Z,98.90
2019-03-24T01:03:26.096Z,99.00
2019-03-24T01:05:56.539Z,99.10
2019-03-24T01:08:26.990Z,99.20
2019-03-24T01:10:57.561Z,99.00
2019-03-24T01:13:27.989Z,99.00
2019-03-24T01:15:58.301Z,99.10
2019-03-24T01:18:28.792Z,99.20
2019-03-24T01:20:59.113Z,99.10
2019-03-24T01:23:29.667Z,99.20
2019-03-24T01:26:00.172Z,99.30
2019-03-24T01:28:30.528Z,99.30
2019-03-24T01:31:00.956Z,99.30
2019-03-24T01:33:31.396Z,99.50
2019-03-24T01:36:01.748Z,99.40
2019-03-24T01:38:32.215Z,99.40
2019-03-24T01:41:02.687Z,99.50
2019-03-24T01:43:33.204Z,99.50
2019-03-24T01:46:03.520Z,99.60
2019-03-24T01:48:33.885Z,99.60
2019-03-24T01:51:04.194Z,99.70
2019-03-24T01:53:34.631Z,99.70
2019-03-24T01:56:04.986Z,99.80
2019-03-24T01:58:35.382Z,99.80
2019-03-24T02:01:05.894Z,99.80
2019-03-24T02:03:36.330Z,99.90
2019-03-24T02:06:06.781Z,99.90
2019-03-24T02:08:37.250Z,99.90
2019-03-24T02:11:07.772Z,99.90
2019-03-24T02:13:38.132Z,99.90
2019-03-24T02:16:09.569Z,99.90
2019-03-24T02:18:40.624Z,99.90
2019-03-24T02:21:11.258Z,99.90
2019-03-24T02:23:41.620Z,99.90
2019-03-24T02:26:12.040Z,99.90
2019-03-24T02:28:42.439Z,99.90
2019-03-24T02:31:12.839Z,99.90
2019-03-24T02:33:43.319Z,99.90
2019-03-24T02:36:13.796Z,99.90
2019-03-24T02:38:44.125Z,99.90
2019-03-24T02:41:14.520Z,99.90
2019-03-24T02:43:44.982Z,99.90
2019-03-24T02:46:24.254Z,99.90
2019-03-24T02:48:47.550Z,99.90
2019-03-24T02:51:18.201Z,99.90
2019-03-24T02:53:48.597Z,99.90
2019-03-24T02:56:19.100Z,99.90
2019-03-24T02:58:49.545Z,99.90
2019-03-24T03:01:19.980Z,99.90
2019-03-24T03:03:50.481Z,99.90
2019-03-24T03:09:53.308Z,99.90
2019-03-24T03:12:23.784Z,99.90
2019-03-24T03:14:54.201Z,99.90
2019-03-24T03:17:24.618Z,99.90
2019-03-24T03:19:55.788Z,99.90
2019-03-24T03:22:26.182Z,99.90
2019-03-24T03:24:56.580Z,99.90
2019-03-24T03:27:26.984Z,99.90
2019-03-24T03:29:57.453Z,99.90
2019-03-24T03:32:27.841Z,99.90
2019-03-24T03:34:59.230Z,99.90
2019-03-24T03:37:29.732Z,99.90
2019-03-24T03:40:00.725Z,99.90
2019-03-24T03:42:32.106Z,99.90
2019-03-24T03:45:02.549Z,99.90
2019-03-24T03:47:32.861Z,99.90
2019-03-24T03:50:03.245Z,99.90
2019-03-24T03:52:33.693Z,99.90
2019-03-24T03:55:05.054Z,99.90
2019-03-24T03:57:35.478Z,99.90
2019-03-24T04:00:07.233Z,99.90
2019-03-24T04:02:37.871Z,99.90
2019-03-24T04:05:08.534Z,99.90
2019-03-24T04:07:38.962Z,99.90
2019-03-24T04:10:09.608Z,99.90
2019-03-24T04:12:39.874Z,99.90
2019-03-24T04:15:10.414Z,99.90
2019-03-24T04:17:40.960Z,99.90
2019-03-24T04:20:11.445Z,99.90
2019-03-24T04:22:41.742Z,99.90
2019-03-24T04:25:14.085Z,99.90
2019-03-24T04:27:44.550Z,99.90
2019-03-24T04:30:14.990Z,99.90
2019-03-24T04:32:45.427Z,99.90
2019-03-24T04:35:16.176Z,99.90
2019-03-24T04:37:46.772Z,99.90
2019-03-24T04:40:17.138Z,99.90
2019-03-24T04:42:47.494Z,99.90
2019-03-24T04:45:17.909Z,99.90
2019-03-24T04:47:48.303Z,99.90
2019-03-24T04:50:18.679Z,99.90
2019-03-24T04:52:49.281Z,99.90
2019-03-24T04:55:19.692Z,99.90
2019-03-24T04:57:50.040Z,99.90
2019-03-24T05:00:26.736Z,99.90
2019-03-24T05:02:57.240Z,99.90
2019-03-24T05:05:27.580Z,99.90
2019-03-24T05:07:58.004Z,99.90
2019-03-24T05:10:28.659Z,99.90
2019-03-24T05:12:59.127Z,99.90
2019-03-24T05:15:29.528Z,99.90
2019-03-24T05:18:00.131Z,99.90
2019-03-24T05:20:30.553Z,99.90
2019-03-24T05:23:01.103Z,99.90
2019-03-24T05:25:31.588Z,99.90
2019-03-24T05:28:01.805Z,99.90
2019-03-24T05:30:32.318Z,99.90
2019-03-24T05:33:02.696Z,99.90
2019-03-24T05:41:49.531Z,99.90
2019-03-24T05:44:19.934Z,99.90
2019-03-24T05:46:50.429Z,99.90
2019-03-24T05:49:20.803Z,99.90
2019-03-24T05:51:51.390Z,99.90
2019-03-24T05:54:21.953Z,99.90
2019-03-24T05:56:52.618Z,99.90
2019-03-24T05:59:22.865Z,99.90
2019-03-24T06:01:53.231Z,99.90
2019-03-24T06:04:23.705Z,99.90
2019-03-24T06:06:54.170Z,99.90
2019-03-24T06:09:24.658Z,99.90
2019-03-24T06:11:55.109Z,99.90
2019-03-24T06:14:25.494Z,99.90
2019-03-24T06:16:55.810Z,99.90
2019-03-24T06:19:26.334Z,99.90
2019-03-24T06:21:56.863Z,99.90
2019-03-24T06:24:27.696Z,99.90
2019-03-24T06:26:58.274Z,99.90
2019-03-24T06:29:28.824Z,99.90
2019-03-24T06:31:59.336Z,99.90
2019-03-24T06:34:29.854Z,99.90
2019-03-24T06:37:00.298Z,99.90
2019-03-24T06:39:30.810Z,99.90
2019-03-24T06:42:01.403Z,99.90
2019-03-24T06:44:31.806Z,99.90
2019-03-24T06:47:02.217Z,99.90
2019-03-24T06:49:32.679Z,99.90
2019-03-24T06:52:03.080Z,99.90
2019-03-24T06:54:33.518Z,99.90
2019-03-24T06:57:04.102Z,99.90
2019-03-24T06:59:34.760Z,99.90
2019-03-24T07:02:05.266Z,99.90
2019-03-24T07:04:35.531Z,99.90
2019-03-24T07:07:05.959Z,99.90
2019-03-24T07:09:36.354Z,99.90
2019-03-24T07:12:06.836Z,99.90
2019-03-24T07:14:38.304Z,99.90
2019-03-24T07:17:08.829Z,99.90
2019-03-24T07:19:39.203Z,99.90
2019-03-24T07:22:09.612Z,99.90
2019-03-24T07:24:39.967Z,99.90
2019-03-24T07:27:10.384Z,99.90
2019-03-24T07:29:41.265Z,99.90
2019-03-24T07:32:11.812Z,99.90
2019-03-24T07:34:44.261Z,99.80
2019-03-24T07:37:14.610Z,99.60
2019-03-24T07:39:44.914Z,99.50
2019-03-24T07:42:15.301Z,99.30
2019-03-24T07:44:45.773Z,99.30
2019-03-24T07:47:16.663Z,99.20
2019-03-24T07:49:47.051Z,99.30
2019-03-24T07:52:17.347Z,99.30
2019-03-24T07:54:47.635Z,99.40
2019-03-24T07:57:17.975Z,99.50
2019-03-24T07:59:50.172Z,99.50
2019-03-24T08:02:20.451Z,99.60
2019-03-24T08:04:50.997Z,99.50
2019-03-24T08:07:21.594Z,99.50
2019-03-24T08:09:52.187Z,99.40
2019-03-24T08:12:22.776Z,99.20
2019-03-24T08:14:53.501Z,99.10
2019-03-24T08:17:23.991Z,99.10
2019-03-24T08:19:54.437Z,99.10
2019-03-24T08:22:24.981Z,99.10
2019-03-24T08:24:55.663Z,98.90
2019-03-24T08:27:26.343Z,98.50
2019-03-24T08:29:56.977Z,98.30
2019-03-24T08:32:27.535Z,98.10
2019-03-24T08:34:57.875Z,97.90
2019-03-24T08:37:29.635Z,97.70
2019-03-24T08:39:59.973Z,97.50
2019-03-24T08:42:30.518Z,97.20
2019-03-24T08:45:00.985Z,97.00
2019-03-24T08:47:31.639Z,96.70
2019-03-24T08:50:02.171Z,96.70
2019-03-24T08:52:32.601Z,96.70
2019-03-24T08:55:03.332Z,96.50
2019-03-24T08:57:34.348Z,96.30
2019-03-24T09:00:04.714Z,96.00
2019-03-24T09:02:34.947Z,96.30
2019-03-24T09:05:05.522Z,96.30
2019-03-24T09:07:35.955Z,96.50
2019-03-24T09:10:07.855Z,96.70
2019-03-24T09:12:38.450Z,96.60
2019-03-24T09:15:09.530Z,96.70
2019-03-24T09:17:41.275Z,96.50
2019-03-24T09:20:12.335Z,96.40
2019-03-24T09:22:42.835Z,96.30
2019-03-24T09:25:13.347Z,95.30
2019-03-24T09:27:44.143Z,95.90
2019-03-24T09:30:29.718Z,96.10
2019-03-24T09:33:00.090Z,95.60
2019-03-24T09:35:30.842Z,95.80
2019-03-24T09:38:01.610Z,95.80
2019-03-24T09:40:33.991Z,95.40
2019-03-24T09:43:05.698Z,95.00
2019-03-24T09:45:37.364Z,95.10
2019-03-24T09:48:08.706Z,95.00
2019-03-24T09:50:44.697Z,94.70
2019-03-24T09:53:15.261Z,94.10
2019-03-24T09:55:45.661Z,94.00
2019-03-24T09:58:16.057Z,93.60
2019-03-24T10:00:46.527Z,93.70
2019-03-24T10:03:16.858Z,93.80
2019-03-24T10:05:47.462Z,93.80
2019-03-24T10:08:18.508Z,93.50
2019-03-24T10:10:48.930Z,93.50
2019-03-24T10:13:19.353Z,93.30
2019-03-24T10:15:49.866Z,93.10
2019-03-24T10:18:20.351Z,93.00
2019-03-24T10:20:53.851Z,92.10
2019-03-24T10:23:24.476Z,92.20
2019-03-24T10:26:05.144Z,92.50
2019-03-24T10:28:37.133Z,92.30
2019-03-24T10:31:07.702Z,91.20
2019-03-24T10:33:38.159Z,91.20
2019-03-24T10:36:08.701Z,91.20
2019-03-24T10:38:39.754Z,90.90
2019-03-24T10:41:17.194Z,90.80
2019-03-24T10:43:48.016Z,90.60
2019-03-24T10:46:18.832Z,90.20
2019-03-24T10:48:50.117Z,90.50
2019-03-24T11:01:58.094Z,88.10
2019-03-24T11:04:28.508Z,88.00
2019-03-24T11:10:37.339Z,87.10
2019-03-24T11:13:07.767Z,86.10
2019-03-24T11:15:38.157Z,84.50
2019-03-24T11:18:08.522Z,83.80
2019-03-24T11:20:39.010Z,83.00
2019-03-24T11:23:09.545Z,82.40
2019-03-24T11:25:40.351Z,80.10
2019-03-24T11:28:10.877Z,79.90
2019-03-24T11:30:41.259Z,78.70
2019-03-24T11:33:11.902Z,77.20
2019-03-24T11:35:42.387Z,78.00
2019-03-24T11:41:38.521Z,79.00
2019-03-24T11:44:09.482Z,78.00
2019-03-24T11:46:39.932Z,78.30
2019-03-24T11:49:19.788Z,79.30
2019-03-24T11:55:51.955Z,79.00
2019-03-24T12:10:02.521Z,73.20
2019-03-24T12:12:32.889Z,74.30
2019-03-24T12:15:05.320Z,76.70
2019-03-24T12:17:35.876Z,77.50
2019-03-24T12:20:08.283Z,76.60
2019-03-24T12:22:38.955Z,78.10
2019-03-24T12:25:09.669Z,78.60
2019-03-24T12:27:40.183Z,78.00
2019-03-24T12:30:11.214Z,78.30
2019-03-24T12:32:41.761Z,78.00
2019-03-24T12:35:12.907Z,77.40
2019-03-24T12:37:43.573Z,78.30
2019-03-24T12:40:16.049Z,79.10
2019-03-24T12:42:46.558Z,78.80
2019-03-24T12:45:17.236Z,78.10
2019-03-24T12:47:48.125Z,77.60
2019-03-24T12:50:18.659Z,77.30
2019-03-24T12:52:49.100Z,77.00
2019-03-24T12:55:19.599Z,76.50
2019-03-24T12:57:50.085Z,75.20
2019-03-24T13:00:34.781Z,73.10
2019-03-24T13:03:05.439Z,73.00
2019-03-24T13:05:36.205Z,72.60
2019-03-24T13:08:17.391Z,72.60
2019-03-24T13:10:48.183Z,72.80
2019-03-24T13:13:18.567Z,73.20
2019-03-24T13:15:49.174Z,72.20
2019-03-24T13:18:19.748Z,72.90
2019-03-24T13:20:50.150Z,71.90
2019-03-24T13:23:20.559Z,72.30
2019-03-24T13:25:50.955Z,71.50
2019-03-24T13:28:21.401Z,70.50
2019-03-24T13:30:51.899Z,69.40
2019-03-24T13:33:22.413Z,69.20
2019-03-24T13:36:05.396Z,68.60
2019-03-24T13:38:35.995Z,69.00
2019-03-24T13:41:06.975Z,68.50
2019-03-24T13:43:37.429Z,66.90
2019-03-24T13:46:07.795Z,66.90
2019-03-24T13:48:38.332Z,66.90
2019-03-24T13:51:09.335Z,67.20
2019-03-24T13:53:39.865Z,66.60
2019-03-24T13:56:10.461Z,66.10
2019-03-24T13:58:41.150Z,65.30
2019-03-24T14:01:13.120Z,65.00
2019-03-24T14:03:43.401Z,64.30
2019-03-24T14:06:13.823Z,61.00
2019-03-24T14:08:44.262Z,60.60
2019-03-24T14:11:14.744Z,59.50
2019-03-24T14:13:45.195Z,59.00
2019-03-24T14:16:15.627Z,58.40
2019-03-24T14:18:46.083Z,58.50
2019-03-24T14:21:16.670Z,57.40
2019-03-24T14:23:47.171Z,58.30
2019-03-24T14:26:17.633Z,58.40
2019-03-24T14:28:48.322Z,57.60
2019-03-24T14:31:18.703Z,57.60
2019-03-24T14:33:49.315Z,58.40
2019-03-24T14:36:19.858Z,58.90
2019-03-24T14:38:50.302Z,58.40
2019-03-24T14:41:20.766Z,57.80
2019-03-24T14:43:52.108Z,59.30
2019-03-24T14:46:22.876Z,59.90
2019-03-24T14:48:53.262Z,60.00
2019-03-24T14:51:23.691Z,60.30
2019-03-24T14:53:54.922Z,59.30
2019-03-24T14:56:25.476Z,60.00
2019-03-24T14:58:56.130Z,61.00
2019-03-24T15:01:27.540Z,60.90
2019-03-24T15:03:58.092Z,61.10
2019-03-24T15:06:28.774Z,60.90
2019-03-24T15:12:31.794Z,59.20
2019-03-24T15:15:02.291Z,60.80
2019-03-24T15:17:32.868Z,60.30
2019-03-24T15:20:03.501Z,60.90
2019-03-24T15:22:33.976Z,60.20
2019-03-24T15:25:04.334Z,60.60
2019-03-24T15:27:37.107Z,60.80
2019-03-24T15:30:07.848Z,61.10
2019-03-24T15:32:38.266Z,60.80
2019-03-24T15:35:09.100Z,60.90
2019-03-24T15:37:39.437Z,59.50
2019-03-24T15:40:10.069Z,60.60
2019-03-24T15:42:40.608Z,61.00
2019-03-24T15:45:11.337Z,62.10
2019-03-24T15:47:41.952Z,61.30
2019-03-24T15:50:12.692Z,61.30
2019-03-24T15:52:43.118Z,60.50
2019-03-24T15:55:13.870Z,60.90
2019-03-24T15:57:44.906Z,60.50
2019-03-24T16:00:17.309Z,61.30
2019-03-24T16:02:47.778Z,61.90
2019-03-24T16:05:18.342Z,61.60
2019-03-24T16:07:48.834Z,61.70
2019-03-24T16:10:19.411Z,61.70
2019-03-24T16:12:50.000Z,61.70
2019-03-24T16:15:20.455Z,62.20
2019-03-24T16:17:52.023Z,62.60
2019-03-24T16:20:23.096Z,62.50
2019-03-24T16:22:53.467Z,62.10
2019-03-24T16:25:24.002Z,62.40
2019-03-24T16:27:54.740Z,62.20
2019-03-24T16:30:25.449Z,62.20
2019-03-24T16:32:56.063Z,61.80
2019-03-24T16:35:28.389Z,61.80
2019-03-24T16:37:59.049Z,61.90
2019-03-24T16:40:29.755Z,61.30
2019-03-24T16:43:00.892Z,61.70
2019-03-24T16:45:33.175Z,62.20
2019-03-24T16:48:04.681Z,62.00
2019-03-24T16:50:37.502Z,62.50
2019-03-24T16:53:08.144Z,63.10
2019-03-24T16:55:38.716Z,63.40
2019-03-24T16:58:09.271Z,64.00
2019-03-24T17:00:39.729Z,63.90
2019-03-24T17:03:10.461Z,63.70
2019-03-24T17:05:41.134Z,64.10
2019-03-24T17:08:11.829Z,64.50
2019-03-24T17:10:42.779Z,64.80
2019-03-24T17:13:26.643Z,65.40
2019-03-24T17:15:59.641Z,66.30
2019-03-24T17:18:30.487Z,66.00
2019-03-24T17:21:02.474Z,66.40
2019-03-24T17:23:33.204Z,66.90
2019-03-24T17:26:04.451Z,67.30
2019-03-24T17:28:34.761Z,67.70
2019-03-24T17:31:05.043Z,68.10
2019-03-24T17:33:35.464Z,68.40
2019-03-24T17:36:06.391Z,68.80
2019-03-24T17:42:09.267Z,69.30
2019-03-24T17:44:40.245Z,69.50
2019-03-24T17:47:10.661Z,69.80
2019-03-24T17:49:41.141Z,70.20
2019-03-24T17:52:11.375Z,70.50
2019-03-24T17:54:41.706Z,70.90
2019-03-24T17:57:12.028Z,71.20
2019-03-24T17:59:42.873Z,71.60
2019-03-24T18:02:14.492Z,71.70
2019-03-24T18:04:45.194Z,71.90
2019-03-24T18:07:16.150Z,72.40
2019-03-24T18:09:46.708Z,72.70
2019-03-24T18:12:17.146Z,72.90
2019-03-24T18:14:47.633Z,73.20
2019-03-24T18:17:19.909Z,73.50
2019-03-24T18:19:50.311Z,73.50
2019-03-24T18:26:41.038Z,73.90
2019-03-24T18:29:11.578Z,73.90
2019-03-24T18:31:41.905Z,74.10
2019-03-24T18:34:12.227Z,74.50
2019-03-24T18:36:42.841Z,75.00
2019-03-24T18:39:13.347Z,75.40
2019-03-24T18:41:44.167Z,75.70
2019-03-24T18:44:14.707Z,76.20
2019-03-24T18:46:46.501Z,76.20
2019-03-24T18:49:16.878Z,77.00
2019-03-24T18:51:47.288Z,76.10
2019-03-24T18:54:17.741Z,76.20
2019-03-24T18:56:47.987Z,76.50
2019-03-24T18:59:18.366Z,76.80
2019-03-24T19:01:48.783Z,76.90
2019-03-24T19:04:19.395Z,77.20
2019-03-24T19:06:49.769Z,77.50
2019-03-24T19:09:20.259Z,77.80
2019-03-24T19:11:51.762Z,78.10
2019-03-24T19:14:24.216Z,78.70
2019-03-24T19:16:54.597Z,78.90
2019-03-24T19:19:25.146Z,79.20
2019-03-24T19:21:55.564Z,79.10
2019-03-24T19:24:26.078Z,79.10
2019-03-24T19:26:56.424Z,79.00
2019-03-24T19:29:26.840Z,79.30
2019-03-24T19:31:57.164Z,79.10
2019-03-24T19:34:27.481Z,79.20
2019-03-24T19:36:58.668Z,79.50
2019-03-24T19:39:30.016Z,79.70
2019-03-24T19:42:00.498Z,80.00
2019-03-24T19:44:30.996Z,80.30
2019-03-24T19:47:01.560Z,80.60
2019-03-24T19:49:39.382Z,80.90
2019-03-24T19:52:09.909Z,81.10
2019-03-24T19:54:40.250Z,81.30
2019-03-24T19:57:10.700Z,81.50
2019-03-24T19:59:41.296Z,81.90
2019-03-24T20:02:11.717Z,82.20
2019-03-24T20:04:42.028Z,82.30
2019-03-24T20:07:12.330Z,82.40
2019-03-24T20:09:42.810Z,82.80
2019-03-24T20:12:13.199Z,83.00
2019-03-24T20:14:43.528Z,83.70
2019-03-24T20:17:15.853Z,84.00
2019-03-24T20:19:46.050Z,84.10
2019-03-24T20:22:16.314Z,84.00
2019-03-24T20:24:46.557Z,84.20
2019-03-24T20:27:16.971Z,84.90
2019-03-24T20:29:47.513Z,84.70
2019-03-24T20:32:17.873Z,85.00
2019-03-24T20:34:48.261Z,85.00
2019-03-24T20:37:18.758Z,85.50
2019-03-24T20:43:30.534Z,86.10
2019-03-24T20:46:00.797Z,86.30
2019-03-24T20:48:31.179Z,86.20
2019-03-24T20:51:01.513Z,86.60
2019-03-24T20:53:31.903Z,86.80
2019-03-24T20:56:02.193Z,87.20
2019-03-24T20:58:32.476Z,87.60
2019-03-24T21:01:02.887Z,87.70
2019-03-24T21:03:33.240Z,88.00
2019-03-24T21:06:03.599Z,88.00
2019-03-24T21:08:33.943Z,88.20
2019-03-24T21:11:04.345Z,88.60
2019-03-24T21:13:34.616Z,88.80
2019-03-24T21:16:05.391Z,89.00
2019-03-24T21:18:35.828Z,89.30
2019-03-24T21:21:06.111Z,89.50
2019-03-24T21:23:36.683Z,89.70
2019-03-24T21:26:07.005Z,90.00
2019-03-24T21:28:37.494Z,90.00
2019-03-24T21:31:07.970Z,90.00
2019-03-24T21:33:38.551Z,90.20
2019-03-24T21:36:09.349Z,90.40
2019-03-24T21:45:44.674Z,90.60
2019-03-24T21:48:15.287Z,90.50
2019-03-24T21:50:45.744Z,90.40
2019-03-24T21:53:17.965Z,90.60
2019-03-24T21:55:48.348Z,90.70
2019-03-24T21:58:19.197Z,90.80
2019-03-24T22:00:49.529Z,90.90
2019-03-24T22:03:19.823Z,90.90
2019-03-24T22:05:50.933Z,91.10
2019-03-24T22:08:21.191Z,91.00
2019-03-24T22:10:51.508Z,91.10
2019-03-24T22:13:21.964Z,91.10
2019-03-24T22:15:52.318Z,91.20
2019-03-24T22:18:22.819Z,91.20
2019-03-24T22:20:53.162Z,91.20
2019-03-24T22:23:23.535Z,91.30
2019-03-24T22:25:53.910Z,91.30
2019-03-24T22:28:24.183Z,91.30
2019-03-24T22:30:54.648Z,91.80
2019-03-24T22:33:25.133Z,91.60
2019-03-24T22:35:55.535Z,91.50
2019-03-24T22:42:36.593Z,91.50
2019-03-24T22:45:07.804Z,91.50
2019-03-24T22:47:38.275Z,91.40
2019-03-24T22:50:09.009Z,91.40
2019-03-24T22:52:39.277Z,91.30
2019-03-24T22:58:41.920Z,91.70
2019-03-24T23:01:13.210Z,91.60
2019-03-24T23:03:43.837Z,91.60
2019-03-24T23:06:15.447Z,91.60
2019-03-24T23:08:45.933Z,91.50
2019-03-24T23:11:16.410Z,91.60
2019-03-24T23:13:46.864Z,91.70
2019-03-24T23:16:17.134Z,91.60
2019-03-24T23:18:47.533Z,91.80
2019-03-24T23:21:20.207Z,91.80
2019-03-24T23:23:50.700Z,91.70
2019-03-24T23:26:21.221Z,91.80
2019-03-24T23:28:51.720Z,91.60
2019-03-24T23:31:22.181Z,91.60
2019-03-24T23:33:52.729Z,91.50
2019-03-24T23:36:23.161Z,91.50
2019-03-24T23:38:53.488Z,91.60
2019-03-24T23:41:23.848Z,91.60
2019-03-24T23:43:54.118Z,91.70
2019-03-24T23:46:24.482Z,91.90
2019-03-24T23:48:55.394Z,91.80
2019-03-24T23:51:25.769Z,91.80
2019-03-24T23:53:57.380Z,91.90
2019-03-24T23:56:27.606Z,91.80
2019-03-24T23:58:57.908Z,91.80
